Time;durP1;ratioP1;P1;durP2;ratioP2;P2;SDS_P1;SDS_P2;PMS_P1;PMS_P2;Temp;Humidity;BMP_temperature;BMP_pressure;BME280_temperature;BME280_humidity;BME280_pressure;Samples;Min_cycle;Max_cycle;Signal;HPM_P1;HPM_P2
2023/08/15 00:00:38;;;;;;;1.00;1.00;;;19.50;99.90;;;;;;4173611;28;20060;-56
2023/08/15 00:02:59;;;;;;;2.03;1.20;;;19.50;99.90;;;;;;4174731;28;20112;-57
2023/08/15 00:05:19;;;;;;;1.17;1.10;;;19.40;99.90;;;;;;4172078;28;20159;-56
2023/08/15 00:07:39;;;;;;;3.42;1.85;;;19.40;99.90;;;;;;4172420;28;20049;-57
2023/08/15 00:09:59;;;;;;;1.55;1.45;;;19.30;99.90;;;;;;4172925;28;20084;-57
2023/08/15 00:12:19;;;;;;;1.58;1.00;;;19.20;99.90;;;;;;4173532;28;20123;-56
2023/08/15 00:14:39;;;;;;;1.20;1.10;;;19.10;99.90;;;;;;4172493;28;20109;-56
2023/08/15 00:16:59;;;;;;;1.00;1.00;;;18.90;99.90;;;;;;4170308;28;20105;-57
2023/08/15 00:19:19;;;;;;;1.77;1.40;;;18.80;99.90;;;;;;4172820;28;20276;-57
2023/08/15 00:21:39;;;;;;;1.42;1.30;;;18.70;99.90;;;;;;4171955;28;20045;-56
2023/08/15 00:24:00;;;;;;;1.30;1.30;;;18.70;99.90;;;;;;4172462;28;20044;-57
2023/08/15 00:26:20;;;;;;;1.10;1.10;;;18.90;99.90;;;;;;4172458;28;20076;-56
2023/08/15 00:28:40;;;;;;;2.45;1.30;;;18.90;99.90;;;;;;4173813;28;20248;-56
2023/08/15 00:31:00;;;;;;;1.67;1.55;;;18.80;99.90;;;;;;4172740;28;20071;-56
2023/08/15 00:33:20;;;;;;;1.50;1.40;;;18.80;99.90;;;;;;4171782;28;20053;-57
2023/08/15 00:35:44;;;;;;;1.38;1.15;;;18.70;99.90;;;;;;4172130;28;20067;-57
2023/08/15 00:38:04;;;;;;;2.15;1.63;;;18.70;99.90;;;;;;4172845;28;20044;-57
2023/08/15 00:40:24;;;;;;;3.45;1.38;;;18.70;99.90;;;;;;4172720;28;20104;-57
2023/08/15 00:42:44;;;;;;;1.70;1.27;;;18.60;99.90;;;;;;4173837;28;20083;-57
2023/08/15 00:45:06;;;;;;;1.15;1.13;;;18.60;99.90;;;;;;4172411;28;20049;-57
2023/08/15 00:47:26;;;;;;;1.52;1.42;;;18.60;99.90;;;;;;4171915;28;20048;-57
2023/08/15 00:49:46;;;;;;;1.40;1.30;;;18.70;99.90;;;;;;4172726;28;20229;-56
2023/08/15 00:52:06;;;;;;;1.30;1.30;;;18.70;99.90;;;;;;4172579;28;20079;-56
2023/08/15 00:54:26;;;;;;;1.20;1.20;;;18.70;99.90;;;;;;4174355;28;20065;-57
2023/08/15 00:56:46;;;;;;;1.30;1.30;;;18.50;99.90;;;;;;4173986;28;20048;-57
2023/08/15 00:59:06;;;;;;;1.33;1.20;;;18.40;99.90;;;;;;4173770;28;20056;-56
2023/08/15 01:01:26;;;;;;;1.50;1.40;;;18.30;99.90;;;;;;4172439;28;20041;-57
2023/08/15 01:03:47;;;;;;;1.20;1.20;;;18.20;99.90;;;;;;4173753;28;20370;-57
2023/08/15 01:06:07;;;;;;;1.50;1.50;;;18.30;99.90;;;;;;4173028;28;20224;-57
2023/08/15 01:08:27;;;;;;;1.65;1.55;;;18.30;99.90;;;;;;4172973;28;20055;-57
2023/08/15 01:10:48;;;;;;;1.52;1.45;;;18.30;99.90;;;;;;4172545;28;20053;-57
2023/08/15 01:13:29;;;;;;;1.40;1.40;;;18.20;99.90;;;;;;4170741;28;20047;-57
2023/08/15 01:15:51;;;;;;;1.40;1.40;;;18.20;99.90;;;;;;4172115;28;20110;-57
2023/08/15 01:18:23;;;;;;;2.38;1.23;;;18.10;99.90;;;;;;4172731;28;20386;-57
2023/08/15 01:20:43;;;;;;;1.25;1.25;;;18.20;99.90;;;;;;4173970;28;20044;-57
2023/08/15 01:23:08;;;;;;;1.20;1.20;;;18.20;99.90;;;;;;4171304;28;20048;-57
2023/08/15 01:25:30;;;;;;;1.98;1.80;;;18.20;99.90;;;;;;4171423;28;20117;-57
2023/08/15 01:27:50;;;;;;;4.40;1.25;;;18.20;99.90;;;;;;4172490;28;20044;-57
2023/08/15 01:30:14;;;;;;;1.85;1.38;;;17.90;99.90;;;;;;4169277;28;20372;-57
2023/08/15 01:32:45;;;;;;;1.67;1.58;;;17.80;99.90;;;;;;4170584;28;20056;-57
2023/08/15 01:35:22;;;;;;;1.30;1.30;;;17.70;99.90;;;;;;4170806;28;20068;-56
2023/08/15 01:37:54;;;;;;;1.73;1.63;;;17.60;99.90;;;;;;4171599;28;20049;-57
2023/08/15 01:40:16;;;;;;;1.33;1.33;;;17.70;99.90;;;;;;4172733;28;20105;-57
2023/08/15 01:42:40;;;;;;;1.47;1.47;;;17.70;99.90;;;;;;4172243;28;20048;-57
2023/08/15 01:45:01;;;;;;;4.53;1.63;;;17.60;99.90;;;;;;4173358;28;20279;-57
2023/08/15 01:47:21;;;;;;;6.97;1.40;;;17.60;99.90;;;;;;4171255;28;20072;-57
2023/08/15 01:49:42;;;;;;;1.60;1.50;;;17.70;99.90;;;;;;4169528;28;20060;-57
2023/08/15 01:52:02;;;;;;;1.63;1.50;;;17.70;99.90;;;;;;4167951;28;20102;-57
2023/08/15 01:54:22;;;;;;;2.30;1.45;;;17.70;99.90;;;;;;4166242;28;20083;-56
2023/08/15 01:56:42;;;;;;;1.40;1.40;;;17.50;99.90;;;;;;4172718;28;20049;-56
2023/08/15 01:59:02;;;;;;;1.42;1.42;;;17.50;99.90;;;;;;4166940;28;20091;-57
2023/08/15 02:01:22;;;;;;;1.55;1.45;;;17.60;99.90;;;;;;4168296;28;20088;-56
2023/08/15 02:03:42;;;;;;;1.13;1.13;;;17.60;99.90;;;;;;4171070;28;20060;-57
2023/08/15 02:06:03;;;;;;;1.83;1.60;;;17.60;99.90;;;;;;4169646;28;20053;-56
2023/08/15 02:08:23;;;;;;;1.20;1.20;;;17.60;99.90;;;;;;4172404;28;20113;-57
2023/08/15 02:10:43;;;;;;;1.23;1.23;;;17.50;99.90;;;;;;4173331;28;20048;-56
2023/08/15 02:13:03;;;;;;;1.00;1.00;;;17.50;99.90;;;;;;4177366;28;20098;-57
2023/08/15 02:15:23;;;;;;;2.15;1.73;;;17.50;99.90;;;;;;4170607;28;20390;-56
2023/08/15 02:17:43;;;;;;;1.65;1.55;;;17.50;99.90;;;;;;4165076;28;20056;-56
2023/08/15 02:20:04;;;;;;;2.15;1.48;;;17.50;99.90;;;;;;4171178;28;20360;-56
2023/08/15 02:22:24;;;;;;;2.17;1.20;;;17.50;99.90;;;;;;4168265;28;20052;-57
2023/08/15 02:24:44;;;;;;;2.13;1.23;;;17.50;99.90;;;;;;4171788;28;20071;-57
2023/08/15 02:27:04;;;;;;;1.55;1.42;;;17.40;99.90;;;;;;4172946;28;20121;-56
2023/08/15 02:29:24;;;;;;;1.85;1.20;;;17.30;99.90;;;;;;4171414;28;20056;-56
2023/08/15 02:31:47;;;;;;;1.45;1.40;;;17.20;99.90;;;;;;4171747;28;20233;-56
2023/08/15 02:34:07;;;;;;;;;;;17.20;99.90;;;;;;4172263;28;20044;-56
2023/08/15 02:36:27;;;;;;;1.10;1.10;;;17.20;99.90;;;;;;4172663;28;19923;-56
2023/08/15 02:38:47;;;;;;;1.52;1.52;;;17.10;99.90;;;;;;4171503;28;20056;-57
2023/08/15 02:41:08;;;;;;;1.98;1.70;;;17.10;99.90;;;;;;4171465;28;20044;-57
2023/08/15 02:43:28;;;;;;;1.42;1.42;;;17.00;99.90;;;;;;4171166;28;20055;-56
2023/08/15 02:45:48;;;;;;;1.75;1.65;;;17.00;99.90;;;;;;4172508;28;20057;-57
2023/08/15 02:48:08;;;;;;;1.60;1.60;;;17.00;99.90;;;;;;4170799;28;20232;-56
2023/08/15 02:50:28;;;;;;;1.30;1.25;;;17.00;99.90;;;;;;4170934;28;20064;-56
2023/08/15 02:52:48;;;;;;;1.20;1.20;;;17.00;99.90;;;;;;4171090;28;20052;-56
2023/08/15 02:55:09;;;;;;;1.83;1.30;;;17.00;99.90;;;;;;4170408;28;20164;-56
2023/08/15 02:57:29;;;;;;;2.70;1.42;;;17.00;99.90;;;;;;4170882;28;20052;-57
2023/08/15 02:59:48;;;;;;;1.50;1.40;;;17.00;99.90;;;;;;4171652;28;20109;-56
2023/08/15 03:02:09;;;;;;;1.80;1.70;;;16.80;99.90;;;;;;4171741;28;20048;-57
2023/08/15 03:04:29;;;;;;;1.38;1.38;;;16.80;99.90;;;;;;4170573;28;20061;-57
2023/08/15 03:06:49;;;;;;;1.73;1.73;;;16.80;99.90;;;;;;4172484;28;20048;-56
2023/08/15 03:09:10;;;;;;;2.17;1.67;;;16.70;99.90;;;;;;4171336;28;20111;-57
2023/08/15 03:11:30;;;;;;;1.60;1.30;;;16.70;99.90;;;;;;4168402;28;20065;-57
2023/08/15 03:13:50;;;;;;;2.30;2.17;;;16.70;99.90;;;;;;4168753;28;20060;-56
2023/08/15 03:16:10;;;;;;;1.40;1.40;;;16.70;99.90;;;;;;4170335;28;20037;-57
2023/08/15 03:18:30;;;;;;;1.70;1.70;;;16.60;99.90;;;;;;4167263;28;20065;-56
2023/08/15 03:21:00;;;;;;;1.63;1.63;;;16.60;99.90;;;;;;4170758;28;20044;-56
2023/08/15 03:23:20;;;;;;;1.50;1.50;;;16.70;99.90;;;;;;4170929;28;20041;-57
2023/08/15 03:25:40;;;;;;;1.75;1.75;;;16.60;99.90;;;;;;4173364;28;20063;-56
2023/08/15 03:28:00;;;;;;;1.70;1.70;;;16.60;99.90;;;;;;4175270;28;20045;-56
2023/08/15 03:30:20;;;;;;;2.05;1.52;;;16.50;99.90;;;;;;4171832;28;20068;-56
2023/08/15 03:32:41;;;;;;;1.30;1.30;;;16.40;99.90;;;;;;4172393;28;20088;-56
2023/08/15 03:35:01;;;;;;;1.83;1.67;;;16.50;99.90;;;;;;4174779;28;20048;-56
2023/08/15 03:37:22;;;;;;;1.65;1.17;;;16.50;99.90;;;;;;4168300;28;20359;-56
2023/08/15 03:39:42;;;;;;;1.30;1.30;;;16.50;99.90;;;;;;4171777;28;20057;-57
2023/08/15 03:42:03;;;;;;;1.77;1.52;;;16.50;99.90;;;;;;4174840;28;20044;-57
2023/08/15 03:44:23;;;;;;;2.47;1.60;;;16.50;99.90;;;;;;4173888;28;20048;-57
2023/08/15 03:46:44;;;;;;;1.92;1.67;;;16.50;99.90;;;;;;4172277;28;20044;-56
2023/08/15 03:49:04;;;;;;;1.33;1.33;;;16.40;99.90;;;;;;4174499;28;20049;-57
2023/08/15 03:51:24;;;;;;;1.40;1.40;;;16.30;99.90;;;;;;4174701;28;20041;-57
2023/08/15 03:54:04;;;;;;;1.60;1.60;;;16.30;99.90;;;;;;4173138;28;20360;-56
2023/08/15 03:56:24;;;;;;;1.40;1.30;;;16.50;99.90;;;;;;4173215;28;20048;-56
2023/08/15 03:58:44;;;;;;;1.85;1.75;;;16.50;99.90;;;;;;4174223;28;20056;-56
2023/08/15 04:01:04;;;;;;;1.52;1.45;;;16.30;99.90;;;;;;4174533;28;20107;-56
2023/08/15 04:03:24;;;;;;;1.45;1.35;;;16.20;99.90;;;;;;4174553;28;20048;-56
2023/08/15 04:05:48;;;;;;;1.73;1.73;;;16.20;99.90;;;;;;4172408;28;20091;-57
2023/08/15 04:08:08;;;;;;;2.58;1.70;;;16.10;99.90;;;;;;4174488;28;20113;-57
2023/08/15 04:10:27;;;;;;;1.88;1.77;;;16.20;99.90;;;;;;4172080;28;20044;-56
2023/08/15 04:12:47;;;;;;;2.72;1.70;;;16.20;99.90;;;;;;4174021;28;20071;-56
2023/08/15 04:15:08;;;;;;;1.63;1.60;;;16.20;99.90;;;;;;4171559;28;20051;-57
2023/08/15 04:17:28;;;;;;;2.47;1.85;;;16.10;99.90;;;;;;4173153;28;20083;-56
2023/08/15 04:19:48;;;;;;;1.45;1.45;;;16.10;99.90;;;;;;4174317;28;20240;-56
2023/08/15 04:22:08;;;;;;;1.45;1.35;;;16.20;99.90;;;;;;4174244;28;20064;-56
2023/08/15 04:24:28;;;;;;;1.88;1.77;;;16.20;99.90;;;;;;4172596;28;20276;-57
2023/08/15 04:26:48;;;;;;;2.67;1.52;;;16.10;99.90;;;;;;4174281;28;20116;-56
2023/08/15 04:29:07;;;;;;;1.73;1.63;;;16.10;99.90;;;;;;4172280;28;20433;-57
2023/08/15 04:31:27;;;;;;;3.10;1.92;;;16.00;99.90;;;;;;4172932;28;20117;-57
2023/08/15 04:33:47;;;;;;;2.30;2.28;;;16.00;99.90;;;;;;4172877;28;20056;-56
2023/08/15 04:36:07;;;;;;;2.30;2.20;;;15.90;99.90;;;;;;4167610;28;20085;-56
2023/08/15 04:38:28;;;;;;;1.90;1.90;;;16.00;99.90;;;;;;4169692;28;20056;-56
2023/08/15 04:40:48;;;;;;;1.45;1.45;;;16.00;99.90;;;;;;4172867;28;20104;-57
2023/08/15 04:43:08;;;;;;;1.95;1.95;;;15.90;99.90;;;;;;4173518;28;20066;-56
2023/08/15 04:45:28;;;;;;;1.63;1.52;;;15.80;99.90;;;;;;4171300;28;20064;-56
2023/08/15 04:47:48;;;;;;;1.42;1.33;;;15.80;99.90;;;;;;4173608;28;20056;-56
2023/08/15 04:50:09;;;;;;;2.08;1.77;;;15.90;99.90;;;;;;4174003;28;20302;-56
2023/08/15 04:52:28;;;;;;;1.77;1.65;;;16.00;99.90;;;;;;4172845;28;20063;-56
2023/08/15 04:54:49;;;;;;;1.92;1.83;;;16.00;99.90;;;;;;4170828;28;20088;-56
2023/08/15 04:57:08;;;;;;;2.05;1.60;;;16.00;99.90;;;;;;4171367;28;20047;-56
2023/08/15 04:59:29;;;;;;;3.05;1.90;;;16.00;99.90;;;;;;4172524;28;20057;-56
2023/08/15 05:01:48;;;;;;;1.60;1.60;;;16.00;99.90;;;;;;4172885;28;20401;-57
2023/08/15 05:04:08;;;;;;;3.83;1.83;;;16.00;99.90;;;;;;4172650;28;20287;-56
2023/08/15 05:06:28;;;;;;;1.83;1.73;;;15.90;99.90;;;;;;4172917;28;20390;-56
2023/08/15 05:08:48;;;;;;;1.90;1.73;;;15.80;99.90;;;;;;4173321;28;20052;-56
2023/08/15 05:11:08;;;;;;;2.22;1.63;;;15.90;99.90;;;;;;4173348;28;20107;-56
2023/08/15 05:13:28;;;;;;;1.48;1.48;;;16.00;99.90;;;;;;4166075;28;20047;-56
2023/08/15 05:15:48;;;;;;;5.47;1.77;;;16.00;99.90;;;;;;4170753;28;20359;-57
2023/08/15 05:18:10;;;;;;;1.58;1.58;;;16.00;99.90;;;;;;4168361;28;20052;-57
2023/08/15 05:20:32;;;;;;;2.45;2.35;;;16.00;99.90;;;;;;4167731;28;20044;-56
2023/08/15 05:22:52;;;;;;;1.95;1.88;;;16.00;99.90;;;;;;4173413;28;20083;-56
2023/08/15 05:25:12;;;;;;;1.52;1.50;;;16.10;99.90;;;;;;4173947;28;20236;-57
2023/08/15 05:27:32;;;;;;;1.80;1.70;;;16.20;99.90;;;;;;4172753;28;20119;-55
2023/08/15 05:29:52;;;;;;;1.95;1.95;;;16.10;99.90;;;;;;4171544;28;20248;-57
2023/08/15 05:32:12;;;;;;;2.97;2.22;;;16.10;99.90;;;;;;4171763;28;20071;-56
2023/08/15 05:34:32;;;;;;;2.03;2.03;;;16.00;99.90;;;;;;4173269;28;20092;-56
2023/08/15 05:36:52;;;;;;;2.20;2.10;;;16.10;99.90;;;;;;4171872;28;20041;-57
2023/08/15 05:39:12;;;;;;;1.50;1.50;;;16.20;99.90;;;;;;4172438;28;20119;-56
2023/08/15 05:41:33;;;;;;;1.55;1.55;;;16.60;99.90;;;;;;4172750;28;20091;-57
2023/08/15 05:43:53;;;;;;;1.42;1.40;;;16.70;99.90;;;;;;4170284;28;20065;-56
2023/08/15 05:46:13;;;;;;;3.40;1.88;;;16.80;99.90;;;;;;4171862;28;20068;-56
2023/08/15 05:48:33;;;;;;;1.70;1.70;;;16.80;99.90;;;;;;4169916;28;20135;-57
2023/08/15 05:50:53;;;;;;;1.65;1.65;;;17.00;99.90;;;;;;4171141;28;20092;-56
2023/08/15 05:53:13;;;;;;;1.38;1.30;;;17.30;99.90;;;;;;4171671;28;20356;-57
2023/08/15 05:55:34;;;;;;;3.13;1.10;;;17.60;99.90;;;;;;4171606;28;20076;-56
2023/08/15 05:57:54;;;;;;;1.50;1.40;;;17.80;99.90;;;;;;4172458;28;20109;-56
2023/08/15 06:00:18;;;;;;;;;;;18.00;99.90;;;;;;4173809;28;20049;-56
2023/08/15 06:02:39;;;;;;;1.63;1.50;;;18.30;99.90;;;;;;4171959;28;19972;-56
2023/08/15 06:04:59;;;;;;;1.52;1.00;;;18.40;99.90;;;;;;4170623;28;20366;-57
2023/08/15 06:07:20;;;;;;;1.38;1.38;;;18.60;99.90;;;;;;4168659;28;20040;-57
2023/08/15 06:09:40;;;;;;;1.38;1.00;;;18.70;99.90;;;;;;4170050;28;20048;-56
2023/08/15 06:12:01;;;;;;;1.90;1.02;;;18.80;99.90;;;;;;4169500;28;20132;-56
2023/08/15 06:14:21;;;;;;;1.10;1.10;;;18.80;99.90;;;;;;4169156;28;20244;-56
2023/08/15 06:16:41;;;;;;;2.15;1.10;;;19.00;99.90;;;;;;4170883;28;20225;-57
2023/08/15 06:19:01;;;;;;;1.50;1.40;;;19.20;99.90;;;;;;4170829;28;20093;-56
2023/08/15 06:21:22;;;;;;;1.20;1.20;;;19.20;99.90;;;;;;4171362;28;20145;-57
2023/08/15 06:23:42;;;;;;;1.75;1.10;;;19.30;99.90;;;;;;4171147;28;20064;-56
2023/08/15 06:26:02;;;;;;;2.55;1.20;;;19.40;99.90;;;;;;4172807;28;20052;-57
2023/08/15 06:28:22;;;;;;;2.17;1.10;;;19.50;99.90;;;;;;4172726;28;20053;-57
2023/08/15 06:30:42;;;;;;;1.27;1.00;;;19.70;99.90;;;;;;4170215;28;20037;-56
2023/08/15 06:33:02;;;;;;;1.10;1.10;;;20.00;99.90;;;;;;4167646;28;20079;-56
2023/08/15 06:35:27;;;;;;;0.90;0.90;;;20.20;99.90;;;;;;4171617;28;20053;-56
2023/08/15 06:37:47;;;;;;;1.77;1.10;;;20.40;99.90;;;;;;4168168;28;20045;-57
2023/08/15 06:40:08;;;;;;;1.08;1.00;;;20.70;99.90;;;;;;4169614;28;20055;-56
2023/08/15 06:42:28;;;;;;;1.00;1.00;;;20.90;99.90;;;;;;4170852;28;20072;-57
2023/08/15 06:44:49;;;;;;;1.48;1.00;;;21.10;99.90;;;;;;4169356;28;20056;-56
2023/08/15 06:47:09;;;;;;;0.90;0.90;;;21.20;99.90;;;;;;4171189;28;20052;-57
2023/08/15 06:49:29;;;;;;;0.90;0.90;;;21.50;99.90;;;;;;4170214;28;20232;-57
2023/08/15 06:51:49;;;;;;;1.08;0.90;;;21.80;99.90;;;;;;4172779;28;20294;-57
2023/08/15 06:54:10;;;;;;;2.17;1.15;;;22.00;99.80;;;;;;4172310;28;20071;-56
2023/08/15 06:56:30;;;;;;;0.90;0.90;;;22.30;99.30;;;;;;4172722;28;20052;-56
2023/08/15 06:58:50;;;;;;;1.63;0.93;;;22.40;98.60;;;;;;4172562;28;20104;-56
2023/08/15 07:01:12;;;;;;;1.38;0.85;;;22.70;98.10;;;;;;4170002;28;20098;-56
2023/08/15 07:03:33;;;;;;;2.65;0.90;;;22.90;98.20;;;;;;4170976;28;20052;-57
2023/08/15 07:05:53;;;;;;;1.27;0.80;;;23.10;97.30;;;;;;4171456;28;20048;-57
2023/08/15 07:08:13;;;;;;;0.80;0.80;;;23.30;96.80;;;;;;4171147;28;20084;-57
2023/08/15 07:10:35;;;;;;;0.82;0.82;;;23.60;96.30;;;;;;4170862;28;20092;-56
2023/08/15 07:12:55;;;;;;;1.60;0.80;;;23.70;96.20;;;;;;4171005;28;20044;-57
2023/08/15 07:15:15;;;;;;;1.75;0.80;;;23.90;95.50;;;;;;4171351;28;20109;-57
2023/08/15 07:17:35;;;;;;;1.17;1.17;;;24.10;95.20;;;;;;4171527;28;20271;-57
2023/08/15 07:19:56;;;;;;;0.80;0.80;;;24.40;94.70;;;;;;4169357;28;20056;-57
2023/08/15 07:22:16;;;;;;;1.77;0.80;;;24.70;94.20;;;;;;4169979;28;20037;-57
2023/08/15 07:24:36;;;;;;;0.90;0.70;;;24.90;94.30;;;;;;4170796;28;20047;-56
2023/08/15 07:26:56;;;;;;;0.98;0.75;;;25.10;93.30;;;;;;4170913;28;20044;-56
2023/08/15 07:29:17;;;;;;;0.70;0.70;;;25.20;93.40;;;;;;4170852;28;20080;-57
2023/08/15 07:31:36;;;;;;;0.70;0.70;;;25.40;93.10;;;;;;4168254;28;20114;-57
2023/08/15 07:33:56;;;;;;;0.70;0.70;;;25.60;92.40;;;;;;4169637;28;20092;-57
2023/08/15 07:36:17;;;;;;;0.75;0.75;;;25.80;92.70;;;;;;4170859;28;20375;-57
2023/08/15 07:38:37;;;;;;;0.98;0.73;;;26.20;92.10;;;;;;4170872;28;20383;-58
2023/08/15 07:40:57;;;;;;;0.98;0.68;;;26.20;91.70;;;;;;4171484;28;20378;-57
2023/08/15 07:43:17;;;;;;;0.60;0.60;;;26.40;90.90;;;;;;4168466;28;20053;-57
2023/08/15 07:45:37;;;;;;;0.70;0.70;;;26.60;90.40;;;;;;4166336;28;20053;-57
2023/08/15 07:47:58;;;;;;;2.03;0.60;;;26.80;87.80;;;;;;4170984;28;20228;-57
2023/08/15 07:50:22;;;;;;;0.80;0.60;;;27.10;88.00;;;;;;4169324;28;20099;-57
2023/08/15 07:52:43;;;;;;;1.05;0.70;;;27.30;84.20;;;;;;4170767;28;20088;-57
2023/08/15 07:55:04;;;;;;;1.45;0.60;;;27.50;85.10;;;;;;4171849;28;20125;-57
2023/08/15 07:57:24;;;;;;;0.60;0.60;;;27.70;83.10;;;;;;4169716;28;20044;-57
2023/08/15 07:59:44;;;;;;;1.65;0.80;;;27.70;80.80;;;;;;4169721;28;20245;-57
2023/08/15 08:02:04;;;;;;;1.25;0.90;;;28.00;82.60;;;;;;4169063;28;20444;-57
2023/08/15 08:04:24;;;;;;;0.65;0.60;;;28.30;80.20;;;;;;4169687;28;20116;-57
2023/08/15 08:06:43;;;;;;;0.52;0.52;;;28.70;80.10;;;;;;4171723;28;20076;-57
2023/08/15 08:09:05;;;;;;;0.50;0.50;;;28.80;78.80;;;;;;4170470;28;20091;-57
2023/08/15 08:11:25;;;;;;;0.65;0.60;;;29.00;77.70;;;;;;4170892;28;20052;-57
2023/08/15 08:13:45;;;;;;;0.75;0.60;;;29.00;75.60;;;;;;4171868;28;20363;-58
2023/08/15 08:16:05;;;;;;;0.50;0.50;;;29.20;77.40;;;;;;4171133;28;20083;-57
2023/08/15 08:18:25;;;;;;;1.25;0.50;;;29.20;77.80;;;;;;4173254;28;20053;-57
2023/08/15 08:20:45;;;;;;;0.73;0.60;;;29.40;76.60;;;;;;4172249;28;20113;-57
2023/08/15 08:23:06;;;;;;;1.33;0.50;;;29.50;75.80;;;;;;4173261;28;20139;-57
2023/08/15 08:25:27;;;;;;;2.00;0.50;;;29.50;75.80;;;;;;4172662;28;20072;-57
2023/08/15 08:27:48;;;;;;;0.57;0.57;;;29.70;75.60;;;;;;4174356;28;20391;-57
2023/08/15 08:30:10;;;;;;;1.58;0.60;;;29.70;76.30;;;;;;4174200;28;20068;-57
2023/08/15 08:32:29;;;;;;;0.60;0.60;;;29.30;76.90;;;;;;4174057;28;20407;-57
2023/08/15 08:34:51;;;;;;;1.85;0.50;;;29.70;77.40;;;;;;4173206;28;20044;-57
2023/08/15 08:37:11;;;;;;;0.73;0.50;;;29.60;78.50;;;;;;4173602;28;20044;-57
2023/08/15 08:39:31;;;;;;;0.60;0.60;;;29.90;77.80;;;;;;4173039;28;20092;-58
2023/08/15 08:41:52;;;;;;;0.52;0.52;;;30.00;78.20;;;;;;4173526;28;20095;-57
2023/08/15 08:44:12;;;;;;;0.63;0.50;;;30.20;77.80;;;;;;4172652;28;20076;-57
2023/08/15 08:46:34;;;;;;;0.50;0.50;;;30.40;78.00;;;;;;4171881;28;20087;-57
2023/08/15 08:48:57;;;;;;;0.50;0.50;;;30.40;76.40;;;;;;4173678;28;20086;-57
2023/08/15 08:51:19;;;;;;;1.38;0.50;;;30.40;75.70;;;;;;4173281;28;20083;-57
2023/08/15 08:53:39;;;;;;;1.07;0.60;;;30.20;75.40;;;;;;4173767;28;20052;-57
2023/08/15 08:56:00;;;;;;;0.73;0.60;;;30.60;77.80;;;;;;4172919;28;20052;-58
2023/08/15 08:58:23;;;;;;;0.60;0.60;;;30.60;75.40;;;;;;4173842;28;20044;-57
2023/08/15 09:00:44;;;;;;;0.50;0.50;;;30.80;72.70;;;;;;4173029;28;20049;-57
2023/08/15 09:03:05;;;;;;;2.05;0.60;;;31.00;75.90;;;;;;4172536;28;20053;-58
2023/08/15 09:05:26;;;;;;;2.53;0.60;;;31.50;74.60;;;;;;4171005;28;20053;-58
2023/08/15 09:07:47;;;;;;;1.52;0.52;;;31.50;73.70;;;;;;4171499;28;20048;-58
2023/08/15 09:10:07;;;;;;;1.85;0.50;;;31.90;75.90;;;;;;4167029;28;20048;-58
2023/08/15 09:12:35;;;;;;;0.77;0.60;;;31.90;74.90;;;;;;4173245;28;20383;-57
2023/08/15 09:14:56;;;;;;;0.50;0.50;;;31.90;72.20;;;;;;4171062;28;20045;-57
2023/08/15 09:17:23;;;;;;;0.50;0.50;;;31.90;70.60;;;;;;4171723;28;20049;-57
2023/08/15 09:19:44;;;;;;;0.60;0.60;;;31.60;71.50;;;;;;4172902;28;20052;-57
2023/08/15 09:22:04;;;;;;;1.70;1.60;;;31.60;70.70;;;;;;4172966;28;20068;-58
2023/08/15 09:24:27;;;;;;;0.85;0.50;;;32.30;70.60;;;;;;4173724;28;20060;-57
2023/08/15 09:26:47;;;;;;;0.50;0.50;;;32.60;70.20;;;;;;4167740;28;20087;-57
2023/08/15 09:29:08;;;;;;;1.08;0.52;;;32.50;69.20;;;;;;4170745;28;20071;-58
2023/08/15 09:31:28;;;;;;;1.60;0.77;;;32.40;68.50;;;;;;4173300;28;20120;-57
2023/08/15 09:33:48;;;;;;;0.50;0.50;;;32.40;71.70;;;;;;4166343;28;20048;-57
2023/08/15 09:36:09;;;;;;;0.50;0.50;;;32.60;68.90;;;;;;4172384;28;20067;-57
2023/08/15 09:38:29;;;;;;;0.75;0.75;;;32.80;72.10;;;;;;4166433;28;20071;-57
2023/08/15 09:40:49;;;;;;;0.50;0.50;;;33.10;71.20;;;;;;4168100;28;20049;-57
2023/08/15 09:43:15;;;;;;;1.48;0.47;;;33.00;69.70;;;;;;4173232;28;20068;-57
2023/08/15 09:45:36;;;;;;;0.60;0.60;;;32.90;69.40;;;;;;4170559;28;20060;-57
2023/08/15 09:47:58;;;;;;;0.60;0.60;;;33.00;69.20;;;;;;4172932;28;20047;-57
2023/08/15 09:50:18;;;;;;;0.68;0.50;;;33.00;68.80;;;;;;4173563;28;20048;-57
2023/08/15 09:52:40;;;;;;;0.50;0.50;;;32.80;69.40;;;;;;4169888;28;20048;-57
2023/08/15 09:55:00;;;;;;;2.80;0.50;;;33.20;69.40;;;;;;4173479;28;20045;-58
2023/08/15 09:57:20;;;;;;;0.75;0.60;;;33.10;69.30;;;;;;4171435;28;20053;-58
2023/08/15 09:59:41;;;;;;;0.90;0.70;;;33.30;71.00;;;;;;4172948;28;20163;-59
2023/08/15 10:02:01;;;;;;;0.93;0.40;;;33.60;70.30;;;;;;4171657;28;20048;-58
2023/08/15 10:04:27;;;;;;;0.40;0.40;;;32.90;69.90;;;;;;4172486;28;20079;-59
2023/08/15 10:06:48;;;;;;;1.90;0.47;;;32.80;66.30;;;;;;4172392;28;20144;-58
2023/08/15 10:09:09;;;;;;;5.22;0.50;;;33.00;70.60;;;;;;4172042;28;20079;-59
2023/08/15 10:11:36;;;;;;;2.38;0.70;;;33.00;67.40;;;;;;4172064;28;20069;-59
2023/08/15 10:13:56;;;;;;;0.40;0.40;;;32.80;66.80;;;;;;4172162;28;20048;-58
2023/08/15 10:16:16;;;;;;;2.30;0.45;;;33.30;66.70;;;;;;4172393;28;20044;-58
2023/08/15 10:18:36;;;;;;;0.63;0.50;;;32.70;64.30;;;;;;4172803;28;20057;-58
2023/08/15 10:20:58;;;;;;;0.82;0.50;;;32.60;67.60;;;;;;4171990;28;20044;-58
2023/08/15 10:23:33;;;;;;;3.50;0.50;;;32.60;65.50;;;;;;4170010;28;20064;-58
2023/08/15 10:25:53;;;;;;;0.50;0.50;;;33.20;66.20;;;;;;4171820;28;20056;-58
2023/08/15 10:28:13;;;;;;;0.52;0.50;;;33.50;70.60;;;;;;4170006;28;20092;-59
2023/08/15 10:30:45;;;;;;;0.43;0.43;;;33.10;66.10;;;;;;4171026;28;20040;-58
2023/08/15 10:33:14;;;;;;;1.15;0.60;;;32.50;66.20;;;;;;4169754;28;20068;-58
2023/08/15 10:35:34;;;;;;;3.85;0.60;;;33.10;70.20;;;;;;4171282;28;20044;-58
2023/08/15 10:37:57;;;;;;;0.50;0.50;;;32.70;65.90;;;;;;4171598;28;20056;-58
2023/08/15 10:40:17;;;;;;;0.47;0.47;;;32.50;67.80;;;;;;4172579;28;20045;-58
2023/08/15 10:43:02;;;;;;;0.50;0.50;;;33.30;68.50;;;;;;4170528;28;20052;-58
2023/08/15 10:45:23;;;;;;;0.50;0.50;;;33.60;68.10;;;;;;4171613;28;20236;-59
2023/08/15 10:47:45;;;;;;;0.40;0.40;;;34.00;68.50;;;;;;4172361;28;20299;-58
2023/08/15 10:50:06;;;;;;;0.50;0.50;;;34.30;64.10;;;;;;4172583;28;20080;-59
2023/08/15 10:52:26;;;;;;;0.50;0.50;;;34.40;70.00;;;;;;4168214;28;20279;-58
2023/08/15 10:54:46;;;;;;;0.52;0.50;;;34.90;66.10;;;;;;4170613;28;20283;-59
2023/08/15 10:57:06;;;;;;;0.50;0.50;;;34.50;63.10;;;;;;4169810;28;20105;-59
2023/08/15 10:59:29;;;;;;;1.00;0.40;;;34.50;65.60;;;;;;4170345;28;20372;-58
2023/08/15 11:01:49;;;;;;;1.67;0.50;;;34.50;63.20;;;;;;4171893;28;20072;-58
2023/08/15 11:04:15;;;;;;;1.58;0.50;;;33.60;63.10;;;;;;4171859;28;20076;-59
2023/08/15 11:06:46;;;;;;;0.57;0.50;;;33.90;68.50;;;;;;4172686;28;20305;-58
2023/08/15 11:09:06;;;;;;;2.85;0.50;;;33.60;65.40;;;;;;4174121;28;20056;-59
2023/08/15 11:11:26;;;;;;;0.40;0.40;;;34.10;64.70;;;;;;4168902;28;20267;-58
2023/08/15 11:13:49;;;;;;;0.70;0.57;;;34.00;64.30;;;;;;4171706;28;20108;-59
2023/08/15 11:16:09;;;;;;;0.50;0.50;;;34.00;63.60;;;;;;4171997;28;20426;-58
2023/08/15 11:18:29;;;;;;;1.05;0.60;;;34.30;63.40;;;;;;4169335;28;20052;-58
2023/08/15 11:20:50;;;;;;;1.23;0.50;;;34.20;64.20;;;;;;4170789;28;20415;-58
2023/08/15 11:23:10;;;;;;;0.50;0.50;;;34.50;65.50;;;;;;4169541;28;20049;-58
2023/08/15 11:25:36;;;;;;;0.93;0.50;;;34.90;63.40;;;;;;4172403;28;20319;-58
2023/08/15 11:28:04;;;;;;;0.82;0.63;;;35.00;62.30;;;;;;4172124;28;20052;-58
2023/08/15 11:30:27;;;;;;;0.50;0.50;;;35.00;65.70;;;;;;4171710;28;20144;-59
2023/08/15 11:32:49;;;;;;;0.40;0.40;;;35.40;63.90;;;;;;4171712;28;20107;-58
2023/08/15 11:35:10;;;;;;;0.50;0.50;;;35.10;65.10;;;;;;4171287;28;20252;-58
2023/08/15 11:37:31;;;;;;;0.50;0.50;;;35.40;62.40;;;;;;4171529;28;20088;-58
2023/08/15 11:39:54;;;;;;;0.55;0.50;;;35.10;63.10;;;;;;4169472;28;20055;-58
2023/08/15 11:42:14;;;;;;;0.73;0.40;;;35.30;64.30;;;;;;4169356;28;20224;-59
2023/08/15 11:44:34;;;;;;;0.60;0.60;;;35.60;67.00;;;;;;4171574;28;20053;-59
2023/08/15 11:46:55;;;;;;;8.57;0.50;;;35.80;62.30;;;;;;4173502;28;20041;-58
2023/08/15 11:49:18;;;;;;;1.30;0.50;;;35.80;62.10;;;;;;4173618;28;20056;-58
2023/08/15 11:51:38;;;;;;;2.03;0.40;;;35.10;61.80;;;;;;4173118;28;20056;-58
2023/08/15 11:53:59;;;;;;;0.55;0.40;;;35.00;63.60;;;;;;4173534;28;20375;-59
2023/08/15 11:56:20;;;;;;;0.40;0.40;;;35.20;65.40;;;;;;4174399;28;20049;-59
2023/08/15 11:58:40;;;;;;;0.47;0.43;;;34.90;61.70;;;;;;4172615;28;20057;-59
2023/08/15 12:01:11;;;;;;;2.47;0.40;;;34.50;61.70;;;;;;4172965;28;20096;-58
2023/08/15 12:03:32;;;;;;;0.60;0.50;;;34.90;64.80;;;;;;4170384;28;20084;-58
2023/08/15 12:05:55;;;;;;;0.40;0.40;;;35.20;64.70;;;;;;4170118;28;20071;-58
2023/08/15 12:08:16;;;;;;;1.00;0.40;;;35.60;65.20;;;;;;4172774;28;20044;-59
2023/08/15 12:10:36;;;;;;;0.40;0.40;;;35.60;63.70;;;;;;4172567;28;20041;-58
2023/08/15 12:13:02;;;;;;;1.20;0.30;;;36.20;62.80;;;;;;4174088;28;20048;-59
2023/08/15 12:15:22;;;;;;;3.95;0.40;;;36.00;62.80;;;;;;4173171;28;20040;-56